Time;durP1;ratioP1;P1;durP2;ratioP2;P2;SDS_P1;SDS_P2;PMS_P1;PMS_P2;Temp;Humidity;BMP_temperature;BMP_pressure;BME280_temperature;BME280_humidity;BME280_pressure;Samples;Min_cycle;Max_cycle;Signal;HPM_P1;HPM_P2
2023/01/06 00:01:02;;;;;;;5.20;2.20;;;;;;;3.63;82.96;98609.17;103037;1313;22478;-71
2023/01/06 00:03:29;;;;;;;6.50;2.70;;;;;;;3.63;82.73;98617.65;103002;1313;137528;-72
2023/01/06 00:06:00;;;;;;;5.10;1.90;;;;;;;3.61;82.73;98618.65;103120;1302;22594;-72
2023/01/06 00:08:27;;;;;;;5.20;1.90;;;;;;;3.61;83.01;98627.39;103004;1295;137415;-71
2023/01/06 00:10:54;;;;;;;6.70;2.40;;;;;;;3.60;82.78;98627.52;103015;1313;22925;-72
2023/01/06 00:13:21;;;;;;;4.40;1.80;;;;;;;3.58;82.45;98627.50;103090;1289;22497;-72
2023/01/06 00:15:48;;;;;;;4.80;2.00;;;;;;;3.57;82.13;98631.65;102931;1299;137666;-72
2023/01/06 00:18:15;;;;;;;3.20;1.80;;;;;;;3.54;82.39;98628.95;103034;1294;23960;-72
2023/01/06 00:20:42;;;;;;;4.90;1.60;;;;;;;3.51;81.33;98627.52;102998;1296;137963;-72
2023/01/06 00:23:09;;;;;;;6.30;1.90;;;;;;;3.49;81.82;98630.45;103229;1309;23003;-71
2023/01/06 00:25:36;;;;;;;4.00;1.50;;;;;;;3.48;82.32;98636.81;103362;1294;137990;-72
2023/01/06 00:28:03;;;;;;;6.80;1.80;;;;;;;3.46;82.41;98638.29;103080;1313;24309;-71
2023/01/06 00:30:30;;;;;;;4.70;1.80;;;;;;;3.45;82.44;98640.77;103359;1295;22576;-72
2023/01/06 00:32:57;;;;;;;6.40;1.70;;;;;;;3.44;82.71;98647.13;103203;1292;137370;-72
2023/01/06 00:35:24;;;;;;;4.30;1.90;;;;;;;3.44;82.26;98646.60;103340;1304;24425;-72
2023/01/06 00:37:50;;;;;;;4.40;1.50;;;;;;;3.44;82.44;98653.73;103109;1297;138184;-72
2023/01/06 00:40:17;;;;;;;5.20;1.70;;;;;;;3.44;82.70;98658.02;103106;1297;23199;-71
2023/01/06 00:42:44;;;;;;;2.90;1.60;;;;;;;3.43;82.32;98657.81;103218;1313;25271;-71
2023/01/06 00:45:11;;;;;;;4.20;1.70;;;;;;;3.42;82.08;98660.61;104664;1297;137364;-72
2023/01/06 00:47:38;;;;;;;5.90;1.60;;;;;;;3.41;82.21;98658.00;104329;1302;22969;-72
2023/01/06 00:50:05;;;;;;;3.80;1.40;;;;;;;3.40;82.25;98657.95;103230;1313;139174;-72
2023/01/06 00:52:33;;;;;;;7.00;1.80;;;;;;;3.40;81.84;98665.91;103210;1301;22611;-71
2023/01/06 00:55:00;;;;;;;3.90;1.80;;;;;;;3.38;81.66;98666.51;103086;1288;22485;-72
2023/01/06 00:57:27;;;;;;;5.00;1.80;;;;;;;3.36;81.55;98666.08;102976;1299;137748;-71
2023/01/06 00:59:54;;;;;;;3.70;1.80;;;;;;;3.35;81.66;98670.08;103055;1293;22576;-72
2023/01/06 01:02:21;;;;;;;3.80;1.60;;;;;;;3.33;82.17;98684.94;102954;1301;137447;-72
2023/01/06 01:04:48;;;;;;;5.40;1.80;;;;;;;3.30;82.07;98689.55;103098;1301;25326;-71
2023/01/06 01:07:16;;;;;;;4.80;1.70;;;;;;;3.29;82.08;98696.03;103020;1301;23966;-71
2023/01/06 01:09:43;;;;;;;5.10;2.10;;;;;;;3.27;81.86;98696.96;102749;1313;139297;-71
2023/01/06 01:12:13;;;;;;;6.20;2.30;;;;;;;3.26;81.98;98696.38;103045;1313;23912;-72
2023/01/06 01:14:46;;;;;;;5.70;1.80;;;;;;;3.26;82.18;98702.13;103076;1305;137392;-71
2023/01/06 01:17:19;;;;;;;3.90;1.90;;;;;;;3.26;82.13;98707.68;103118;1294;25329;-72
2023/01/06 01:19:48;;;;;;;6.00;2.00;;;;;;;3.25;82.11;98714.11;103096;1311;137593;-71
2023/01/06 01:22:16;;;;;;;6.20;2.60;;;;;;;3.23;82.31;98718.75;103138;1311;22506;-72
2023/01/06 01:24:43;;;;;;;5.80;2.00;;;;;;;3.22;82.32;98723.20;103083;1312;22483;-72
2023/01/06 01:27:11;;;;;;;4.80;2.20;;;;;;;3.21;82.18;98723.94;102794;1298;473648;-71
2023/01/06 01:29:37;;;;;;;5.50;2.30;;;;;;;3.19;82.46;98729.85;103103;1297;24380;-72
2023/01/06 01:32:05;;;;;;;3.70;1.40;;;;;;;3.19;82.53;98730.26;102975;1299;137630;-71
2023/01/06 01:34:32;;;;;;;6.70;2.20;;;;;;;3.17;82.55;98731.15;103091;1313;22640;-72
2023/01/06 01:36:59;;;;;;;6.10;1.80;;;;;;;3.17;82.73;98735.70;103099;1291;23272;-72
2023/01/06 01:39:28;;;;;;;2.80;1.50;;;;;;;3.16;82.62;98736.71;102979;1313;137558;-71
2023/01/06 01:41:56;;;;;;;4.00;1.20;;;;;;;3.16;82.70;98737.05;102990;1291;23885;-72
2023/01/06 01:44:55;;;;;;;4.70;1.90;;;;;;;3.15;82.57;98735.46;103001;1305;137407;-72
2023/01/06 01:47:31;;;;;;;5.40;1.50;;;;;;;3.14;82.72;98743.98;103324;1298;24305;-72
2023/01/06 01:50:04;;;;;;;4.20;2.00;;;;;;;3.14;82.68;98742.20;102908;1313;138252;-72
2023/01/06 01:52:33;;;;;;;3.50;1.40;;;;;;;3.12;82.56;98745.41;103261;1303;22479;-72
2023/01/06 01:55:01;;;;;;;4.90;1.90;;;;;;;3.11;82.41;98744.90;103276;1309;22472;-71
2023/01/06 01:57:39;;;;;;;3.10;1.50;;;;;;;3.08;82.66;98744.88;103281;1298;137703;-71
2023/01/06 02:00:08;;;;;;;3.70;1.30;;;;;;;3.10;82.80;98750.97;103015;1313;25419;-72
2023/01/06 02:02:41;;;;;;;3.80;1.60;;;;;;;3.07;82.92;98753.92;103063;1312;137393;-72
2023/01/06 02:05:11;;;;;;;5.90;1.80;;;;;;;3.05;82.53;98755.80;103106;1311;22486;-71
2023/01/06 02:07:39;;;;;;;4.10;1.80;;;;;;;3.02;82.97;98753.48;103023;1311;139424;-72
2023/01/06 02:10:21;;;;;;;4.00;1.50;;;;;;;3.02;83.00;98753.30;103007;1301;26487;-72
2023/01/06 02:12:53;;;;;;;4.80;1.70;;;;;;;3.01;82.75;98751.42;103137;1313;22553;-71
2023/01/06 02:15:24;;;;;;;4.10;1.80;;;;;;;3.00;83.13;98756.63;103233;1289;138297;-72
2023/01/06 02:17:57;;;;;;;2.90;1.60;;;;;;;2.98;83.00;98758.86;103243;1299;25318;-71
2023/01/06 02:21:03;;;;;;;4.10;1.50;;;;;;;2.97;83.05;98768.79;102940;1298;139087;-71
2023/01/06 02:23:52;;;;;;;2.90;1.70;;;;;;;2.95;83.26;98767.95;103132;1301;25259;-71
2023/01/06 02:27:01;;;;;;;4.10;2.10;;;;;;;2.94;83.17;98771.36;102962;1313;137951;-71
2023/01/06 02:29:56;;;;;;;6.80;2.30;;;;;;;2.92;83.34;98777.92;102971;1300;25260;-71
2023/01/06 02:32:59;;;;;;;4.60;2.00;;;;;;;2.89;83.72;98773.75;102988;1313;139015;-71
2023/01/06 02:35:49;;;;;;;5.00;2.10;;;;;;;2.86;83.58;98771.55;103101;1313;22595;-71
2023/01/06 02:38:34;;;;;;;3.20;2.00;;;;;;;2.84;83.77;98781.84;102469;1308;138965;-71
2023/01/06 02:41:15;;;;;;;4.10;2.60;;;;;;;2.83;83.96;98778.39;102677;1310;23219;-72
2023/01/06 02:44:07;;;;;;;3.40;1.90;;;;;;;2.82;83.81;98775.48;102411;1301;137935;-71
2023/01/06 02:47:11;;;;;;;6.10;2.50;;;;;;;2.81;83.85;98786.35;102934;1295;22482;-72
2023/01/06 02:50:10;;;;;;;5.00;2.10;;;;;;;2.79;83.74;98790.55;102377;1316;139740;-71
2023/01/06 02:53:00;;;;;;;3.20;2.00;;;;;;;2.78;83.72;98791.60;102577;1301;22496;-71
2023/01/06 02:55:43;;;;;;;3.30;2.40;;;;;;;2.76;84.19;98791.46;102613;1303;23025;-72
2023/01/06 02:58:21;;;;;;;6.90;2.50;;;;;;;2.74;84.34;98791.10;102760;1308;22491;-72
2023/01/06 03:00:56;;;;;;;4.80;2.10;;;;;;;2.74;84.32;98791.58;102499;1308;23223;-71
2023/01/06 03:03:28;;;;;;;6.70;3.30;;;;;;;2.72;84.39;98788.38;102590;1309;137937;-71
2023/01/06 03:06:02;;;;;;;5.80;2.70;;;;;;;2.71;84.41;98795.28;102447;1318;23846;-71
2023/01/06 03:08:32;;;;;;;5.30;2.20;;;;;;;2.70;84.21;98793.64;102357;1316;137630;-72
2023/01/06 03:11:01;;;;;;;5.60;2.70;;;;;;;2.69;84.40;98790.15;102538;1316;24252;-71
2023/01/06 03:13:34;;;;;;;;;;;;;;;2.68;84.56;98789.94;102521;1299;22589;-71
2023/01/06 03:16:01;;;;;;;5.50;2.30;;;;;;;2.66;84.76;98790.86;102702;1301;124438;-71
2023/01/06 03:18:29;;;;;;;2.70;2.00;;;;;;;2.65;84.95;98795.86;103037;1303;22464;-71
2023/01/06 03:21:00;;;;;;;4.10;2.60;;;;;;;2.63;84.95;98793.68;102919;1294;137471;-72
2023/01/06 03:23:27;;;;;;;3.40;2.40;;;;;;;2.64;84.76;98794.85;103606;1304;22476;-71
2023/01/06 03:25:54;;;;;;;5.10;2.70;;;;;;;2.64;84.76;98795.77;102933;1305;137694;-72
2023/01/06 03:28:24;;;;;;;6.70;2.20;;;;;;;2.65;84.84;98802.95;103042;1309;22490;-71
2023/01/06 03:30:57;;;;;;;4.60;2.70;;;;;;;2.65;85.10;98800.15;102948;1304;22705;-71
2023/01/06 03:33:36;;;;;;;4.90;2.40;;;;;;;2.65;85.05;98796.92;102872;1297;137541;-71
2023/01/06 03:36:41;;;;;;;5.20;2.00;;;;;;;2.66;84.99;98808.23;103284;1312;23383;-71
2023/01/06 03:39:32;;;;;;;4.40;2.20;;;;;;;2.67;84.74;98809.77;102916;1304;137569;-72
2023/01/06 03:45:49;;;;;;;3.60;2.80;;;;;;;2.69;85.01;98811.88;102807;1311;137663;-71
2023/01/06 03:48:42;;;;;;;4.30;2.00;;;;;;;2.70;84.93;98807.66;102071;1316;22502;-71
2023/01/06 03:51:36;;;;;;;4.00;2.40;;;;;;;2.70;84.72;98804.23;102088;1313;137491;-71
2023/01/06 03:54:17;;;;;;;4.50;2.40;;;;;;;2.71;85.12;98800.66;102069;1318;22493;-72
2023/01/06 03:56:50;;;;;;;6.50;2.40;;;;;;;2.71;84.96;98800.16;102133;1319;137463;-71
2023/01/06 03:59:25;;;;;;;5.60;2.90;;;;;;;2.71;84.88;98802.51;102335;1310;22498;-71
2023/01/06 04:01:53;;;;;;;4.80;3.00;;;;;;;2.70;84.90;98799.70;102370;1303;137648;-71
2023/01/06 04:04:20;;;;;;;7.40;3.10;;;;;;;2.71;84.91;98807.85;102366;1319;22480;-71
2023/01/06 04:06:48;;;;;;;6.90;3.40;;;;;;;2.71;84.94;98809.13;102358;1310;22963;-71
2023/01/06 04:09:15;;;;;;;5.80;3.00;;;;;;;2.71;84.95;98816.49;102185;1302;137878;-71
2023/01/06 04:14:30;;;;;;;6.20;2.80;;;;;;;2.71;85.06;98819.55;102129;1317;137573;-71
2023/01/06 04:16:59;;;;;;;4.90;2.60;;;;;;;2.70;84.93;98820.29;101917;1320;23271;-71
2023/01/06 04:19:27;;;;;;;4.80;2.70;;;;;;;2.70;85.04;98826.77;102165;1310;22498;-71
2023/01/06 04:21:54;;;;;;;6.50;2.90;;;;;;;2.70;85.06;98832.54;101823;1319;137947;-72
2023/01/06 04:24:22;;;;;;;6.10;3.40;;;;;;;2.69;85.11;98842.85;102021;1314;24351;-72
2023/01/06 04:26:49;;;;;;;5.60;2.90;;;;;;;2.70;84.97;98846.34;102730;1313;139303;-71
2023/01/06 04:29:16;;;;;;;4.80;2.60;;;;;;;2.70;84.90;98841.38;103014;1313;22494;-71
2023/01/06 04:31:43;;;;;;;5.20;3.60;;;;;;;2.70;85.16;98846.17;102813;1313;138330;-72
2023/01/06 04:34:10;;;;;;;4.90;2.80;;;;;;;2.71;85.01;98853.63;103567;1313;22507;-72
2023/01/06 04:36:37;;;;;;;8.10;3.90;;;;;;;2.71;85.08;98853.96;102928;1296;22473;-71
2023/01/06 04:39:04;;;;;;;7.40;3.20;;;;;;;2.71;85.02;98852.19;102822;1313;137369;-72
2023/01/06 04:41:31;;;;;;;4.80;3.30;;;;;;;2.71;85.28;98854.84;102975;1310;22484;-72
2023/01/06 04:43:58;;;;;;;4.90;2.90;;;;;;;2.72;85.24;98857.09;102918;1301;138207;-72
2023/01/06 04:46:25;;;;;;;7.10;3.20;;;;;;;2.72;85.35;98852.01;103026;1307;22606;-71
2023/01/06 04:48:52;;;;;;;5.20;3.30;;;;;;;2.73;85.16;98852.85;103039;1313;22787;-71
2023/01/06 04:51:18;;;;;;;7.10;3.50;;;;;;;2.71;85.25;98854.60;102875;1301;137393;-72
2023/01/06 04:53:46;;;;;;;5.10;2.70;;;;;;;2.71;85.37;98854.83;102983;1310;22512;-71
2023/01/06 04:56:13;;;;;;;6.10;3.50;;;;;;;2.69;85.16;98846.48;102917;1295;139908;-71
2023/01/06 04:58:40;;;;;;;7.40;3.70;;;;;;;2.67;85.34;98849.20;103000;1313;25581;-71
2023/01/06 05:01:10;;;;;;;5.60;3.40;;;;;;;2.67;85.30;98846.72;103391;1305;22540;-72
2023/01/06 05:03:38;;;;;;;4.00;3.40;;;;;;;2.65;85.52;98846.23;102955;1313;137499;-72
2023/01/06 05:06:10;;;;;;;6.30;3.80;;;;;;;2.65;85.44;98851.98;102994;1296;22881;-71
2023/01/06 05:08:38;;;;;;;5.40;3.50;;;;;;;2.63;85.49;98856.13;103459;1294;137542;-72
2023/01/06 05:11:07;;;;;;;9.00;4.40;;;;;;;2.61;85.60;98861.41;103112;1304;22513;-71
2023/01/06 05:13:34;;;;;;;7.30;3.80;;;;;;;2.59;85.49;98861.63;102992;1301;22448;-71
2023/01/06 05:16:32;;;;;;;7.20;3.90;;;;;;;2.58;85.45;98868.26;102890;1309;137239;-71
2023/01/06 05:18:59;;;;;;;8.90;5.00;;;;;;;2.55;85.54;98864.30;102942;1297;22481;-72
2023/01/06 05:21:28;;;;;;;6.40;3.60;;;;;;;2.53;85.73;98865.41;102863;1291;137439;-72
2023/01/06 05:23:55;;;;;;;6.30;3.80;;;;;;;2.50;85.63;98867.89;102887;1304;25321;-71
2023/01/06 05:26:25;;;;;;;6.80;4.10;;;;;;;2.46;85.59;98867.05;102945;1298;139220;-71
2023/01/06 05:28:52;;;;;;;5.70;3.70;;;;;;;2.43;85.59;98871.24;103074;1312;24452;-71
2023/01/06 05:31:20;;;;;;;7.10;4.50;;;;;;;2.40;85.61;98876.86;102937;1310;22471;-71
2023/01/06 05:33:48;;;;;;;4.90;4.40;;;;;;;2.35;85.79;98878.25;102818;1305;137434;-72
2023/01/06 05:36:16;;;;;;;10.70;4.70;;;;;;;2.32;85.75;98882.37;102976;1312;22488;-71
2023/01/06 05:38:44;;;;;;;6.80;4.60;;;;;;;2.30;85.92;98887.29;103000;1302;137922;-71
2023/01/06 05:41:11;;;;;;;8.10;4.40;;;;;;;2.28;86.02;98887.68;102988;1307;22481;-71
2023/01/06 05:43:39;;;;;;;6.10;4.50;;;;;;;2.26;86.15;98889.38;102986;1312;22526;-71
2023/01/06 05:46:08;;;;;;;8.30;5.00;;;;;;;2.25;86.18;98888.38;102885;1313;137398;-71
2023/01/06 05:48:37;;;;;;;7.90;4.40;;;;;;;2.24;86.17;98882.48;103117;1298;22473;-71
2023/01/06 05:51:06;;;;;;;9.30;5.10;;;;;;;2.23;86.16;98883.98;102912;1294;137463;-71
2023/01/06 05:53:35;;;;;;;8.70;4.30;;;;;;;2.22;86.24;98885.38;102979;1294;24049;-71
2023/01/06 05:56:04;;;;;;;9.60;4.50;;;;;;;2.20;86.24;98890.56;102872;1295;137661;-71
2023/01/06 05:58:35;;;;;;;6.80;4.40;;;;;;;2.19;86.33;98890.94;102987;1307;22498;-71
2023/01/06 06:01:03;;;;;;;5.40;4.10;;;;;;;2.17;86.59;98896.33;103003;1298;25320;-71
2023/01/06 06:03:30;;;;;;;7.20;4.50;;;;;;;2.15;86.48;98898.17;102875;1285;137490;-71
2023/01/06 06:06:03;;;;;;;11.50;6.10;;;;;;;2.13;86.72;98895.89;103001;1313;22476;-71
2023/01/06 06:08:30;;;;;;;13.90;7.40;;;;;;;2.11;86.75;98891.17;102775;1313;138665;-71
2023/01/06 06:11:05;;;;;;;12.80;6.70;;;;;;;2.08;86.95;98898.45;102968;1313;24451;-71
2023/01/06 06:13:31;;;;;;;9.00;5.40;;;;;;;2.05;87.16;98902.16;102992;1289;24472;-71
2023/01/06 06:16:10;;;;;;;8.90;5.60;;;;;;;2.02;87.33;98905.73;102898;1304;137537;-71
2023/01/06 06:18:41;;;;;;;7.90;5.30;;;;;;;2.01;87.51;98908.91;103023;1306;22481;-71
2023/01/06 06:21:11;;;;;;;7.40;4.80;;;;;;;2.01;87.58;98913.61;102861;1298;138222;-71
2023/01/06 06:23:38;;;;;;;;;;;;;;;2.02;87.76;98918.13;102971;1301;22874;-71
2023/01/06 06:26:05;;;;;;;8.50;5.70;;;;;;;2.01;87.80;98922.83;103384;1289;124029;-71
2023/01/06 06:28:34;;;;;;;10.30;5.40;;;;;;;2.04;87.97;98925.11;103002;1299;25479;-71
2023/01/06 06:31:10;;;;;;;8.60;4.60;;;;;;;2.05;88.01;98928.29;102931;1313;22492;-71
2023/01/06 06:33:38;;;;;;;7.10;5.00;;;;;;;2.08;88.05;98926.74;103402;1291;138376;-71
2023/01/06 06:36:10;;;;;;;9.60;5.50;;;;;;;2.09;88.11;98922.32;103729;1288;22480;-71
2023/01/06 06:38:38;;;;;;;9.20;5.10;;;;;;;2.12;88.07;98930.27;102876;1298;137477;-71
2023/01/06 06:41:05;;;;;;;8.20;5.30;;;;;;;2.13;88.03;98929.95;102971;1312;22492;-71
2023/01/06 06:43:32;;;;;;;7.60;5.00;;;;;;;2.14;88.04;98931.41;103132;1298;22866;-71
2023/01/06 06:45:59;;;;;;;11.40;5.90;;;;;;;2.16;88.24;98931.60;102816;1313;137562;-71
2023/01/06 06:48:30;;;;;;;8.20;5.20;;;;;;;2.17;88.19;98935.22;102953;1313;22494;-71
2023/01/06 06:50:59;;;;;;;10.50;4.80;;;;;;;2.17;88.09;98942.05;103015;1311;137434;-71
2023/01/06 06:53:26;;;;;;;10.50;6.30;;;;;;;2.16;88.01;98936.37;102915;1305;22669;-71
2023/01/06 06:55:54;;;;;;;8.90;5.50;;;;;;;2.16;88.10;98936.96;102879;1313;137786;-71
2023/01/06 06:58:21;;;;;;;13.60;5.70;;;;;;;2.14;87.93;98938.77;103222;1299;22478;-71
2023/01/06 07:00:48;;;;;;;7.90;6.00;;;;;;;2.12;88.02;98940.66;102992;1305;22485;-71
2023/01/06 07:03:15;;;;;;;10.80;5.90;;;;;;;2.09;87.89;98945.25;102879;1293;137554;-73
2023/01/06 07:05:44;;;;;;;9.70;6.00;;;;;;;2.08;87.98;98945.86;102979;1301;22472;-73
2023/01/06 07:08:11;;;;;;;14.50;8.20;;;;;;;2.08;88.01;98950.23;103407;1298;137620;-70
2023/01/06 07:10:38;;;;;;;13.50;8.60;;;;;;;2.06;88.01;98954.88;103254;1289;22482;-70
2023/01/06 07:13:05;;;;;;;21.70;9.10;;;;;;;2.05;87.97;98958.04;103094;1303;22494;-71
2023/01/06 07:15:32;;;;;;;16.30;7.70;;;;;;;2.06;88.11;98960.69;103196;1299;137674;-71
2023/01/06 07:18:01;;;;;;;17.90;7.80;;;;;;;2.05;87.92;98962.98;103087;1313;22505;-71
2023/01/06 07:20:30;;;;;;;14.90;6.50;;;;;;;2.04;88.00;98963.23;102975;1294;137777;-71
2023/01/06 07:22:57;;;;;;;14.10;6.50;;;;;;;2.04;87.92;98967.19;103115;1312;22494;-71
2023/01/06 07:25:24;;;;;;;13.20;7.40;;;;;;;2.04;88.07;98971.65;103037;1298;25678;-71
2023/01/06 07:27:56;;;;;;;12.70;7.50;;;;;;;2.05;88.08;98973.12;103080;1313;138886;-71
2023/01/06 07:30:23;;;;;;;15.80;7.50;;;;;;;2.06;88.00;98977.84;103178;1313;25200;-71
2023/01/06 07:32:50;;;;;;;16.30;8.30;;;;;;;2.07;88.12;98982.38;102893;1313;138622;-71
2023/01/06 07:35:18;;;;;;;11.50;7.50;;;;;;;2.10;88.21;98985.81;103055;1297;22472;-71
2023/01/06 07:37:45;;;;;;;11.60;5.80;;;;;;;2.11;88.10;98981.91;103025;1313;25218;-71
2023/01/06 07:40:12;;;;;;;11.50;7.80;;;;;;;2.13;88.06;98983.02;103365;1307;137426;-71
2023/01/06 07:42:39;;;;;;;12.10;7.80;;;;;;;2.14;88.11;98982.50;103099;1313;22519;-73
2023/01/06 07:45:07;;;;;;;13.50;9.50;;;;;;;2.16;87.93;98981.38;103013;1293;137665;-73
2023/01/06 07:47:34;;;;;;;13.50;9.30;;;;;;;2.16;88.08;98979.89;103077;1313;22479;-73
2023/01/06 07:50:02;;;;;;;13.70;9.70;;;;;;;2.18;87.95;98980.61;102954;1307;137955;-73
2023/01/06 07:52:29;;;;;;;13.80;9.00;;;;;;;2.19;88.05;98978.69;103106;1313;23262;-73
2023/01/06 07:54:58;;;;;;;12.30;8.50;;;;;;;2.20;88.00;98984.11;103091;1299;22619;-73
2023/01/06 07:57:28;;;;;;;14.50;8.30;;;;;;;2.21;88.01;98987.79;103012;1313;137652;-73
2023/01/06 07:59:58;;;;;;;10.20;7.50;;;;;;;2.21;87.94;98991.20;103464;1312;22491;-74
2023/01/06 08:02:24;;;;;;;14.30;8.10;;;;;;;2.21;87.90;98987.63;102996;1289;137721;-73
2023/01/06 08:04:51;;;;;;;9.20;7.10;;;;;;;2.21;87.77;98991.86;103128;1310;22496;-73
2023/01/06 08:07:18;;;;;;;12.70;7.00;;;;;;;2.23;87.89;98993.08;103107;1313;25212;-73
2023/01/06 08:09:45;;;;;;;12.50;7.20;;;;;;;2.24;87.94;98993.77;102940;1313;137691;-73
2023/01/06 08:12:12;;;;;;;17.00;7.50;;;;;;;2.27;87.99;98998.13;103051;1294;25209;-74
2023/01/06 08:14:39;;;;;;;11.50;7.00;;;;;;;2.30;87.87;99000.86;103243;1310;139464;-73
2023/01/06 08:17:06;;;;;;;14.20;7.80;;;;;;;2.32;87.99;99009.23;103029;1301;23424;-73
2023/01/06 08:19:33;;;;;;;8.50;5.90;;;;;;;2.35;87.69;99016.09;103104;1291;22479;-73
2023/01/06 08:22:00;;;;;;;11.10;7.30;;;;;;;2.38;87.75;99017.70;103030;1313;139574;-73
2023/01/06 08:24:29;;;;;;;13.90;7.50;;;;;;;2.41;87.69;99012.77;103092;1313;25333;-73
2023/01/06 08:26:57;;;;;;;10.60;7.30;;;;;;;2.46;87.61;99011.52;103005;1288;138223;-73
2023/01/06 08:29:24;;;;;;;11.60;6.80;;;;;;;2.50;87.66;99015.05;103377;1305;22719;-73
2023/01/06 08:31:52;;;;;;;12.20;7.20;;;;;;;2.54;87.36;99012.61;103311;1301;137709;-74
2023/01/06 08:34:19;;;;;;;9.50;6.50;;;;;;;2.58;87.46;99010.71;103124;1305;25672;-73
2023/01/06 08:36:46;;;;;;;10.70;6.90;;;;;;;2.62;87.18;99013.13;103068;1305;22479;-73
2023/01/06 08:39:14;;;;;;;10.30;5.70;;;;;;;2.66;87.14;99020.33;103115;1313;138093;-73
2023/01/06 08:41:41;;;;;;;12.10;6.00;;;;;;;2.73;87.05;99020.27;103770;1289;25299;-73
2023/01/06 08:44:08;;;;;;;9.50;5.30;;;;;;;2.79;87.32;99017.08;103497;1296;138576;-74
2023/01/06 08:46:35;;;;;;;6.40;5.20;;;;;;;2.81;86.64;99014.21;105539;1281;23074;-74
2023/01/06 08:49:02;;;;;;;8.20;5.90;;;;;;;2.84;86.79;99014.94;105657;1295;22209;-74
2023/01/06 08:51:28;;;;;;;9.10;5.60;;;;;;;2.89;86.48;99020.02;104517;1303;138107;-74
2023/01/06 08:53:55;;;;;;;10.20;6.60;;;;;;;2.92;86.42;99020.27;102998;1301;24268;-73
2023/01/06 08:56:27;;;;;;;10.30;5.90;;;;;;;2.97;86.29;99019.80;102946;1287;138199;-73
2023/01/06 08:58:57;;;;;;;7.70;5.40;;;;;;;3.01;85.98;99015.19;103224;1303;22477;-74
2023/01/06 09:01:27;;;;;;;10.50;6.60;;;;;;;3.06;86.13;99017.23;104447;1285;24452;-74
2023/01/06 09:03:57;;;;;;;8.30;5.50;;;;;;;3.12;85.81;99022.27;104020;1284;138435;-74
2023/01/06 09:06:25;;;;;;;8.20;4.90;;;;;;;3.17;85.59;99017.33;103534;1289;22605;-74
2023/01/06 09:08:54;;;;;;;16.00;6.00;;;;;;;3.28;85.66;99020.05;103028;1305;137824;-74
2023/01/06 09:11:21;;;;;;;8.80;5.40;;;;;;;3.38;85.56;99010.96;103323;1303;25675;-74
2023/01/06 09:13:50;;;;;;;8.10;5.40;;;;;;;3.45;85.39;99017.23;103608;1304;25580;-74
2023/01/06 09:16:18;;;;;;;10.90;6.70;;;;;;;3.51;85.22;99013.79;104010;1292;22323;-74
2023/01/06 09:18:48;;;;;;;8.60;5.50;;;;;;;3.57;84.94;99011.30;104688;1288;22479;-73
2023/01/06 09:21:17;;;;;;;7.30;4.60;;;;;;;3.61;84.34;99017.12;105561;1294;137679;-74
2023/01/06 09:23:45;;;;;;;8.40;4.30;;;;;;;3.61;83.53;99019.41;106198;1312;23631;-74
2023/01/06 09:26:14;;;;;;;7.30;4.40;;;;;;;3.60;83.07;99022.58;104606;1288;138059;-73
2023/01/06 09:28:41;;;;;;;6.50;4.20;;;;;;;3.60;82.73;99017.81;104886;1295;22415;-74
2023/01/06 09:31:08;;;;;;;6.80;4.70;;;;;;;3.59;82.67;99016.56;104667;1291;22502;-74
2023/01/06 09:33:36;;;;;;;8.30;4.70;;;;;;;3.60;82.90;99012.23;103824;1289;137459;-74
2023/01/06 09:36:03;;;;;;;10.30;6.20;;;;;;;3.60;82.65;99010.52;103340;1288;22476;-74
2023/01/06 09:38:30;;;;;;;15.00;7.90;;;;;;;3.61;82.79;99014.42;104521;1298;137940;-74
2023/01/06 09:41:08;;;;;;;10.60;6.60;;;;;;;3.60;82.74;99017.36;104802;1288;22493;-74
2023/01/06 09:43:49;;;;;;;12.70;6.10;;;;;;;3.58;82.58;99013.44;104340;1288;22270;-74
2023/01/06 09:46:22;;;;;;;11.50;6.60;;;;;;;3.57;82.70;99009.82;103465;1298;24577;-73
2023/01/06 09:49:02;;;;;;;10.20;5.80;;;;;;;3.57;82.41;99005.18;104706;1298;22503;-74
2023/01/06 09:51:30;;;;;;;11.70;6.20;;;;;;;3.57;82.34;98996.02;103720;1280;137562;-74
2023/01/06 09:54:07;;;;;;;7.50;5.30;;;;;;;3.58;82.60;98995.55;103892;1285;23885;-73
2023/01/06 09:56:35;;;;;;;7.20;5.20;;;;;;;3.59;82.50;98986.48;103997;1289;137660;-74
2023/01/06 09:59:11;;;;;;;8.80;5.20;;;;;;;3.62;82.54;98988.25;105256;1297;25244;-74
2023/01/06 10:01:44;;;;;;;8.10;5.90;;;;;;;3.65;82.84;98976.23;104760;1288;22480;-73
2023/01/06 10:04:19;;;;;;;8.10;5.70;;;;;;;3.69;82.46;98972.88;104561;1288;137945;-74
2023/01/06 10:07:18;;;;;;;10.20;5.50;;;;;;;3.73;82.55;98965.61;103930;1288;22237;-74
2023/01/06 10:09:45;;;;;;;;;;;;;;;3.80;82.44;98956.09;104299;1297;138023;-74
2023/01/06 10:12:29;;;;;;;10.30;5.20;;;;;;;3.85;82.47;98952.20;103432;1304;22484;-74
2023/01/06 10:15:21;;;;;;;7.80;5.10;;;;;;;3.92;82.30;98947.89;102989;1298;137755;-74
2023/01/06 10:18:12;;;;;;;6.20;4.30;;;;;;;3.96;81.42;98944.73;103679;1290;22655;-73
2023/01/06 10:20:51;;;;;;;8.40;5.10;;;;;;;3.98;80.30;98945.52;104155;1288;138430;-74
2023/01/06 10:23:37;;;;;;;5.90;4.30;;;;;;;3.98;80.00;98948.29;103998;1291;27111;-74
2023/01/06 10:26:40;;;;;;;7.20;4.60;;;;;;;4.00;79.95;98947.38;105561;1313;138436;-74
2023/01/06 10:29:15;;;;;;;5.80;5.10;;;;;;;4.03;80.00;98949.33;104400;1309;24339;-74
2023/01/06 10:31:48;;;;;;;6.90;3.50;;;;;;;4.08;79.49;98937.23;102997;1310;25700;-74
2023/01/06 10:34:25;;;;;;;4.00;2.80;;;;;;;4.11;78.91;98934.11;102494;1295;137823;-73
2023/01/06 10:37:00;;;;;;;4.90;3.10;;;;;;;4.12;77.90;98932.17;103239;1297;25259;-74
2023/01/06 10:39:29;;;;;;;3.60;2.60;;;;;;;4.16;78.39;98929.48;102416;1304;137422;-73
2023/01/06 10:44:51;;;;;;;9.20;5.00;;;;;;;4.22;76.91;98921.09;102776;1294;137931;-73
2023/01/06 10:47:29;;;;;;;4.00;3.10;;;;;;;4.24;77.17;98924.78;103064;1294;23671;-73
2023/01/06 10:49:57;;;;;;;5.00;2.60;;;;;;;4.26;76.91;98922.69;102388;1296;137692;-74
2023/01/06 10:52:25;;;;;;;4.20;2.20;;;;;;;4.28;75.76;98924.13;103074;1294;22516;-73
2023/01/06 10:54:58;;;;;;;3.40;2.30;;;;;;;4.25;75.18;98920.90;103089;1303;23658;-74
2023/01/06 10:57:31;;;;;;;3.80;2.30;;;;;;;4.24;75.60;98917.73;103795;1299;137504;-73
2023/01/06 11:00:13;;;;;;;2.40;1.70;;;;;;;4.25;75.36;98919.11;102476;1295;24467;-74
2023/01/06 11:02:44;;;;;;;2.90;2.00;;;;;;;4.24;75.41;98917.91;102958;1304;137673;-74
2023/01/06 11:05:17;;;;;;;5.00;2.40;;;;;;;4.23;75.16;98917.69;104713;1290;26627;-74
2023/01/06 11:07:54;;;;;;;2.50;1.80;;;;;;;4.24;75.48;98909.85;103681;1290;22607;-74
2023/01/06 11:10:27;;;;;;;2.00;1.90;;;;;;;4.26;75.54;98906.36;103043;1290;22475;-73
2023/01/06 11:12:57;;;;;;;4.40;2.70;;;;;;;4.27;75.13;98906.41;102887;1284;24205;-74
2023/01/06 11:15:40;;;;;;;4.90;4.00;;;;;;;4.29;75.46;98909.37;103005;1289;137612;-73
2023/01/06 11:18:24;;;;;;;4.10;3.10;;;;;;;4.31;75.46;98906.56;102717;1315;22486;-74
2023/01/06 11:21:07;;;;;;;4.20;3.20;;;;;;;4.32;75.59;98902.71;102778;1307;137435;-73
2023/01/06 11:23:35;;;;;;;3.10;2.80;;;;;;;4.31;75.29;98901.59;102972;1312;25322;-73
2023/01/06 11:26:19;;;;;;;3.00;2.70;;;;;;;4.30;75.43;98901.16;103401;1291;140306;-74
2023/01/06 11:28:48;;;;;;;6.10;3.10;;;;;;;4.26;75.09;98896.89;103691;1288;24283;-73
2023/01/06 11:31:19;;;;;;;4.40;3.20;;;;;;;4.23;75.31;98893.63;103314;1294;22484;-73
2023/01/06 11:33:52;;;;;;;3.40;2.90;;;;;;;4.20;75.73;98893.65;102882;1313;137410;-73
2023/01/06 11:36:22;;;;;;;6.40;3.40;;;;;;;4.19;75.77;98896.95;102989;1313;22468;-73
2023/01/06 11:38:57;;;;;;;4.20;3.80;;;;;;;4.18;75.79;98899.10;102880;1288;137388;-73
2023/01/06 11:41:29;;;;;;;5.30;4.00;;;;;;;4.17;76.23;98902.08;102944;1313;22487;-74
2023/01/06 11:44:23;;;;;;;5.60;3.60;;;;;;;4.17;76.35;98899.89;103394;1284;137744;-73
2023/01/06 11:46:55;;;;;;;5.50;3.70;;;;;;;4.17;76.48;98900.59;103488;1289;25366;-74
2023/01/06 11:49:30;;;;;;;6.40;4.20;;;;;;;4.19;76.75;98905.77;103037;1311;24325;-75
2023/01/06 11:52:07;;;;;;;7.10;3.70;;;;;;;4.21;77.01;98906.98;102887;1311;137644;-73
2023/01/06 11:54:38;;;;;;;7.70;3.80;;;;;;;4.23;76.73;98903.66;102946;1297;23899;-73
2023/01/06 11:57:25;;;;;;;4.70;3.90;;;;;;;4.21;76.49;98892.61;102818;1313;137514;-73
2023/01/06 12:00:19;;;;;;;4.90;3.20;;;;;;;4.20;76.56;98892.39;102936;1312;24198;-73